Terminal Aerodrome Forecast
Issued by NWS Jackson, MS

Home | Current Version | Previous Version | Text Only | Print | Product List | Glossary On
Versions: 1 2 3 4 5 6 7 8 9 10 11 12 13 14 15 16 17 18 19 20 21 22 23 24 25
197
FTUS44 KJAN 171129
TAFHBG
TAF
KHBG 171129Z 1712/1812 14003KT 1SM BR OVC010
     FM171400 15003KT 4SM BR OVC010
     FM171500 18005KT P6SM BKN010 OVC015
     FM171800 20008KT P6SM SCT025 OVC040
     FM180000 18003KT P6SM BKN100 BKN200
     FM180900 00000KT 1SM BR OVC005=

USA.gov is the U.S. government's official web portal to all federal, state and local government web resources and services.